sensor_id;sensor_type;location;lat;lon;timestamp;temperature;humidity
3602;DHT22;1815;50.950;6.920;2024-02-21T00:00:52;12.50;99.90
3602;DHT22;1815;50.950;6.920;2024-02-21T00:03:21;12.40;99.90
3602;DHT22;1815;50.950;6.920;2024-02-21T00:05:46;12.50;99.90
3602;DHT22;1815;50.950;6.920;2024-02-21T00:08:12;12.50;99.90
3602;DHT22;1815;50.950;6.920;2024-02-21T00:10:38;12.50;99.90
3602;DHT22;1815;50.950;6.920;2024-02-21T00:13:04;12.50;99.90
3602;DHT22;1815;50.950;6.920;2024-02-21T00:15:29;12.50;99.90
3602;DHT22;1815;50.950;6.920;2024-02-21T00:17:55;12.50;99.90
3602;DHT22;1815;50.950;6.920;2024-02-21T00:20:21;12.50;99.90
3602;DHT22;1815;50.950;6.920;2024-02-21T00:22:46;12.50;99.90
3602;DHT22;1815;50.950;6.920;2024-02-21T00:25:12;12.50;99.90
3602;DHT22;1815;50.950;6.920;2024-02-21T00:27:38;12.50;99.90
3602;DHT22;1815;50.950;6.920;2024-02-21T00:30:07;12.50;99.90
3602;DHT22;1815;50.950;6.920;2024-02-21T00:32:33;12.50;99.90
3602;DHT22;1815;50.950;6.920;2024-02-21T00:35:00;12.50;99.90
3602;DHT22;1815;50.950;6.920;2024-02-21T00:37:27;12.50;99.90
3602;DHT22;1815;50.950;6.920;2024-02-21T00:39:54;12.50;99.90
3602;DHT22;1815;50.950;6.920;2024-02-21T00:42:20;12.50;99.90
3602;DHT22;1815;50.950;6.920;2024-02-21T00:44:46;12.50;99.90
3602;DHT22;1815;50.950;6.920;2024-02-21T00:47:12;12.50;99.90
3602;DHT22;1815;50.950;6.920;2024-02-21T00:49:38;12.50;99.90
3602;DHT22;1815;50.950;6.920;2024-02-21T00:52:04;12.50;99.90
3602;DHT22;1815;50.950;6.920;2024-02-21T00:54:29;12.50;99.90
3602;DHT22;1815;50.950;6.920;2024-02-21T00:56:55;12.50;99.90
3602;DHT22;1815;50.950;6.920;2024-02-21T00:59:23;12.50;99.90
3602;DHT22;1815;50.950;6.920;2024-02-21T01:01:49;12.50;99.90
3602;DHT22;1815;50.950;6.920;2024-02-21T01:04:15;12.50;99.90
3602;DHT22;1815;50.950;6.920;2024-02-21T01:06:41;12.50;99.90
3602;DHT22;1815;50.950;6.920;2024-02-21T01:09:10;12.40;99.90
3602;DHT22;1815;50.950;6.920;2024-02-21T01:11:36;12.40;99.90
3602;DHT22;1815;50.950;6.920;2024-02-21T01:14:02;12.40;99.90
3602;DHT22;1815;50.950;6.920;2024-02-21T01:16:28;12.40;99.90
3602;DHT22;1815;50.950;6.920;2024-02-21T01:18:53;12.40;99.90
3602;DHT22;1815;50.950;6.920;2024-02-21T01:21:19;12.40;99.90
3602;DHT22;1815;50.950;6.920;2024-02-21T01:23:45;12.40;99.90
3602;DHT22;1815;50.950;6.920;2024-02-21T01:26:11;12.40;99.90
3602;DHT22;1815;50.950;6.920;2024-02-21T01:28:39;12.40;99.90
3602;DHT22;1815;50.950;6.920;2024-02-21T01:31:05;12.40;99.90
3602;DHT22;1815;50.950;6.920;2024-02-21T01:33:31;12.40;99.90
3602;DHT22;1815;50.950;6.920;2024-02-21T01:36:04;12.40;99.90
3602;DHT22;1815;50.950;6.920;2024-02-21T01:38:32;12.40;99.90
3602;DHT22;1815;50.950;6.920;2024-02-21T01:41:01;12.40;99.90
3602;DHT22;1815;50.950;6.920;2024-02-21T01:43:26;12.40;99.90
3602;DHT22;1815;50.950;6.920;2024-02-21T01:45:53;12.40;99.90
3602;DHT22;1815;50.950;6.920;2024-02-21T01:48:22;12.50;99.90
3602;DHT22;1815;50.950;6.920;2024-02-21T01:50:49;12.40;99.90
3602;DHT22;1815;50.950;6.920;2024-02-21T01:53:21;12.40;99.90
3602;DHT22;1815;50.950;6.920;2024-02-21T01:55:47;12.40;99.90
3602;DHT22;1815;50.950;6.920;2024-02-21T01:58:19;12.50;99.90
3602;DHT22;1815;50.950;6.920;2024-02-21T02:00:46;12.40;99.90
3602;DHT22;1815;50.950;6.920;2024-02-21T02:03:14;12.50;99.90
3602;DHT22;1815;50.950;6.920;2024-02-21T02:05:46;12.50;99.90
3602;DHT22;1815;50.950;6.920;2024-02-21T02:08:17;12.40;99.90
3602;DHT22;1815;50.950;6.920;2024-02-21T02:10:44;12.40;99.90
3602;DHT22;1815;50.950;6.920;2024-02-21T02:13:10;12.50;99.90
3602;DHT22;1815;50.950;6.920;2024-02-21T02:15:46;12.40;99.90
3602;DHT22;1815;50.950;6.920;2024-02-21T02:18:12;12.40;99.90
3602;DHT22;1815;50.950;6.920;2024-02-21T02:20:38;12.40;99.90
3602;DHT22;1815;50.950;6.920;2024-02-21T02:23:31;12.40;99.90
3602;DHT22;1815;50.950;6.920;2024-02-21T02:25:57;12.40;99.90
3602;DHT22;1815;50.950;6.920;2024-02-21T02:28:23;12.40;99.90
3602;DHT22;1815;50.950;6.920;2024-02-21T02:30:50;12.40;99.90
3602;DHT22;1815;50.950;6.920;2024-02-21T02:33:16;12.40;99.90
3602;DHT22;1815;50.950;6.920;2024-02-21T02:35:44;12.40;99.90
3602;DHT22;1815;50.950;6.920;2024-02-21T02:38:11;12.30;99.90
3602;DHT22;1815;50.950;6.920;2024-02-21T02:40:38;12.30;99.90
3602;DHT22;1815;50.950;6.920;2024-02-21T02:43:04;12.30;99.90
3602;DHT22;1815;50.950;6.920;2024-02-21T02:45:30;12.30;99.90
3602;DHT22;1815;50.950;6.920;2024-02-21T02:47:57;12.30;99.90
3602;DHT22;1815;50.950;6.920;2024-02-21T02:50:26;12.30;99.90
3602;DHT22;1815;50.950;6.920;2024-02-21T02:52:53;12.20;99.90
3602;DHT22;1815;50.950;6.920;2024-02-21T02:55:19;12.20;99.90
3602;DHT22;1815;50.950;6.920;2024-02-21T02:57:45;12.20;99.90
3602;DHT22;1815;50.950;6.920;2024-02-21T03:00:12;12.20;99.90
3602;DHT22;1815;50.950;6.920;2024-02-21T03:02:39;12.20;99.90
3602;DHT22;1815;50.950;6.920;2024-02-21T03:05:14;12.20;99.90
3602;DHT22;1815;50.950;6.920;2024-02-21T03:07:40;12.20;99.90
3602;DHT22;1815;50.950;6.920;2024-02-21T03:10:06;12.20;99.90
3602;DHT22;1815;50.950;6.920;2024-02-21T03:12:32;12.20;99.90
3602;DHT22;1815;50.950;6.920;2024-02-21T03:14:57;12.20;99.90
3602;DHT22;1815;50.950;6.920;2024-02-21T03:17:24;12.20;99.90
3602;DHT22;1815;50.950;6.920;2024-02-21T03:19:50;12.20;99.90
3602;DHT22;1815;50.950;6.920;2024-02-21T03:22:16;12.20;99.90
3602;DHT22;1815;50.950;6.920;2024-02-21T03:24:42;12.20;99.90
3602;DHT22;1815;50.950;6.920;2024-02-21T03:27:08;12.20;99.90
3602;DHT22;1815;50.950;6.920;2024-02-21T03:29:33;12.20;99.90
3602;DHT22;1815;50.950;6.920;2024-02-21T03:31:59;12.20;99.90
3602;DHT22;1815;50.950;6.920;2024-02-21T03:34:25;12.20;99.90
3602;DHT22;1815;50.950;6.920;2024-02-21T03:36:51;12.20;99.90
3602;DHT22;1815;50.950;6.920;2024-02-21T03:39:17;12.20;99.90
3602;DHT22;1815;50.950;6.920;2024-02-21T03:41:42;12.20;99.90
3602;DHT22;1815;50.950;6.920;2024-02-21T03:44:09;12.20;99.90
3602;DHT22;1815;50.950;6.920;2024-02-21T03:46:34;12.20;99.90
3602;DHT22;1815;50.950;6.920;2024-02-21T03:49:01;12.20;99.90
3602;DHT22;1815;50.950;6.920;2024-02-21T03:51:26;12.20;99.90
3602;DHT22;1815;50.950;6.920;2024-02-21T03:53:52;12.20;99.90
3602;DHT22;1815;50.950;6.920;2024-02-21T03:56:18;12.20;99.90
3602;DHT22;1815;50.950;6.920;2024-02-21T03:58:43;12.20;99.90
3602;DHT22;1815;50.950;6.920;2024-02-21T04:01:09;12.30;99.90
3602;DHT22;1815;50.950;6.920;2024-02-21T04:03:35;12.20;99.90
3602;DHT22;1815;50.950;6.920;2024-02-21T04:06:09;12.30;99.90
3602;DHT22;1815;50.950;6.920;2024-02-21T04:08:35;12.30;99.90
3602;DHT22;1815;50.950;6.920;2024-02-21T04:11:01;12.30;99.90
3602;DHT22;1815;50.950;6.920;2024-02-21T04:13:27;12.30;99.90
3602;DHT22;1815;50.950;6.920;2024-02-21T04:15:52;12.30;99.90
3602;DHT22;1815;50.950;6.920;2024-02-21T04:18:18;12.30;99.90
3602;DHT22;1815;50.950;6.920;2024-02-21T04:20:44;12.30;99.90
3602;DHT22;1815;50.950;6.920;2024-02-21T04:23:09;12.30;99.90
3602;DHT22;1815;50.950;6.920;2024-02-21T04:25:36;12.30;99.90
3602;DHT22;1815;50.950;6.920;2024-02-21T04:28:01;12.30;99.90
3602;DHT22;1815;50.950;6.920;2024-02-21T04:30:28;12.30;99.90
3602;DHT22;1815;50.950;6.920;2024-02-21T04:32:54;12.30;99.90
3602;DHT22;1815;50.950;6.920;2024-02-21T04:35:20;12.30;99.90
3602;DHT22;1815;50.950;6.920;2024-02-21T04:37:45;12.30;99.90
3602;DHT22;1815;50.950;6.920;2024-02-21T04:40:11;12.30;99.90
3602;DHT22;1815;50.950;6.920;2024-02-21T04:42:37;12.20;99.90
3602;DHT22;1815;50.950;6.920;2024-02-21T04:45:03;12.20;99.90
3602;DHT22;1815;50.950;6.920;2024-02-21T04:47:29;12.20;99.90
3602;DHT22;1815;50.950;6.920;2024-02-21T04:49:55;12.20;99.90
3602;DHT22;1815;50.950;6.920;2024-02-21T04:52:20;12.20;99.90
3602;DHT22;1815;50.950;6.920;2024-02-21T04:54:46;12.20;99.90
3602;DHT22;1815;50.950;6.920;2024-02-21T04:57:12;12.20;99.90
3602;DHT22;1815;50.950;6.920;2024-02-21T04:59:46;12.20;99.90
3602;DHT22;1815;50.950;6.920;2024-02-21T05:02:14;12.20;99.90
3602;DHT22;1815;50.950;6.920;2024-02-21T05:04:40;12.20;99.90
3602;DHT22;1815;50.950;6.920;2024-02-21T05:07:07;12.20;99.90
3602;DHT22;1815;50.950;6.920;2024-02-21T05:09:33;12.20;99.90
3602;DHT22;1815;50.950;6.920;2024-02-21T05:11:59;12.20;99.90
3602;DHT22;1815;50.950;6.920;2024-02-21T05:14:28;12.20;99.90
3602;DHT22;1815;50.950;6.920;2024-02-21T05:16:53;12.10;99.90
3602;DHT22;1815;50.950;6.920;2024-02-21T05:19:19;12.20;99.90
3602;DHT22;1815;50.950;6.920;2024-02-21T05:21:45;12.20;99.90
3602;DHT22;1815;50.950;6.920;2024-02-21T05:24:11;12.20;99.90
3602;DHT22;1815;50.950;6.920;2024-02-21T05:26:37;12.20;99.90
3602;DHT22;1815;50.950;6.920;2024-02-21T05:29:03;12.20;99.90
3602;DHT22;1815;50.950;6.920;2024-02-21T05:34:17;12.20;99.90
3602;DHT22;1815;50.950;6.920;2024-02-21T05:36:43;12.20;99.90
3602;DHT22;1815;50.950;6.920;2024-02-21T05:39:09;12.20;99.90
3602;DHT22;1815;50.950;6.920;2024-02-21T05:41:35;12.20;99.90
3602;DHT22;1815;50.950;6.920;2024-02-21T05:44:01;12.20;99.90
3602;DHT22;1815;50.950;6.920;2024-02-21T05:46:27;12.20;99.90
3602;DHT22;1815;50.950;6.920;2024-02-21T05:48:52;12.10;99.90
3602;DHT22;1815;50.950;6.920;2024-02-21T05:51:18;12.20;99.90
3602;DHT22;1815;50.950;6.920;2024-02-21T05:53:44;12.10;99.90
3602;DHT22;1815;50.950;6.920;2024-02-21T05:56:14;12.10;99.90
3602;DHT22;1815;50.950;6.920;2024-02-21T05:58:40;12.10;99.90
3602;DHT22;1815;50.950;6.920;2024-02-21T06:01:07;12.10;99.90
3602;DHT22;1815;50.950;6.920;2024-02-21T06:03:35;12.10;99.90
3602;DHT22;1815;50.950;6.920;2024-02-21T06:06:04;12.10;99.90
3602;DHT22;1815;50.950;6.920;2024-02-21T06:08:30;12.10;99.90
3602;DHT22;1815;50.950;6.920;2024-02-21T06:10:56;12.10;99.90
3602;DHT22;1815;50.950;6.920;2024-02-21T06:13:23;12.10;99.90
3602;DHT22;1815;50.950;6.920;2024-02-21T06:15:49;12.20;99.90
3602;DHT22;1815;50.950;6.920;2024-02-21T06:18:17;12.10;99.90
3602;DHT22;1815;50.950;6.920;2024-02-21T06:20:42;12.10;99.90
3602;DHT22;1815;50.950;6.920;2024-02-21T06:23:08;12.10;99.90
3602;DHT22;1815;50.950;6.920;2024-02-21T06:25:35;12.10;99.90
3602;DHT22;1815;50.950;6.920;2024-02-21T06:28:00;12.10;99.90
3602;DHT22;1815;50.950;6.920;2024-02-21T06:30:26;12.10;99.90
3602;DHT22;1815;50.950;6.920;2024-02-21T06:32:52;12.00;99.90
3602;DHT22;1815;50.950;6.920;2024-02-21T06:35:21;12.00;99.90
3602;DHT22;1815;50.950;6.920;2024-02-21T06:37:47;11.90;99.90
3602;DHT22;1815;50.950;6.920;2024-02-21T06:40:17;11.90;99.90
3602;DHT22;1815;50.950;6.920;2024-02-21T06:42:42;11.80;99.90
3602;DHT22;1815;50.950;6.920;2024-02-21T06:45:09;11.80;99.90
3602;DHT22;1815;50.950;6.920;2024-02-21T06:47:34;11.80;99.90
3602;DHT22;1815;50.950;6.920;2024-02-21T06:50:00;11.70;99.90
3602;DHT22;1815;50.950;6.920;2024-02-21T06:52:29;11.60;99.90
3602;DHT22;1815;50.950;6.920;2024-02-21T06:54:56;11.60;99.90
3602;DHT22;1815;50.950;6.920;2024-02-21T06:57:22;11.60;99.90
3602;DHT22;1815;50.950;6.920;2024-02-21T06:59:48;11.60;99.90
3602;DHT22;1815;50.950;6.920;2024-02-21T07:02:14;11.60;99.90
3602;DHT22;1815;50.950;6.920;2024-02-21T07:04:39;11.60;99.90
3602;DHT22;1815;50.950;6.920;2024-02-21T07:07:05;11.70;99.90
3602;DHT22;1815;50.950;6.920;2024-02-21T07:09:31;11.70;99.90
3602;DHT22;1815;50.950;6.920;2024-02-21T07:11:58;11.70;99.90
3602;DHT22;1815;50.950;6.920;2024-02-21T07:14:24;11.80;99.90
3602;DHT22;1815;50.950;6.920;2024-02-21T07:16:51;11.80;99.90
3602;DHT22;1815;50.950;6.920;2024-02-21T07:19:16;11.90;99.90
3602;DHT22;1815;50.950;6.920;2024-02-21T07:21:42;11.90;99.90
3602;DHT22;1815;50.950;6.920;2024-02-21T07:24:08;11.90;99.90
3602;DHT22;1815;50.950;6.920;2024-02-21T07:26:34;12.00;99.90
3602;DHT22;1815;50.950;6.920;2024-02-21T07:29:00;11.90;99.90
3602;DHT22;1815;50.950;6.920;2024-02-21T07:31:26;12.00;99.90
3602;DHT22;1815;50.950;6.920;2024-02-21T07:33:52;12.00;99.90
3602;DHT22;1815;50.950;6.920;2024-02-21T07:36:28;12.00;99.90
3602;DHT22;1815;50.950;6.920;2024-02-21T07:38:57;12.00;99.90
3602;DHT22;1815;50.950;6.920;2024-02-21T07:41:23;12.10;99.90
3602;DHT22;1815;50.950;6.920;2024-02-21T07:43:49;12.10;99.90
3602;DHT22;1815;50.950;6.920;2024-02-21T07:46:15;12.00;99.90
3602;DHT22;1815;50.950;6.920;2024-02-21T07:48:42;12.10;99.90
3602;DHT22;1815;50.950;6.920;2024-02-21T07:51:08;12.00;99.90
3602;DHT22;1815;50.950;6.920;2024-02-21T07:53:33;12.00;99.90
3602;DHT22;1815;50.950;6.920;2024-02-21T07:55:59;12.00;99.90
3602;DHT22;1815;50.950;6.920;2024-02-21T07:58:25;12.00;99.90
3602;DHT22;1815;50.950;6.920;2024-02-21T08:00:51;12.00;99.90
3602;DHT22;1815;50.950;6.920;2024-02-21T08:03:16;12.00;99.90
3602;DHT22;1815;50.950;6.920;2024-02-21T08:05:43;12.00;99.90
3602;DHT22;1815;50.950;6.920;2024-02-21T08:08:10;12.00;99.90
3602;DHT22;1815;50.950;6.920;2024-02-21T08:10:36;12.00;99.90
3602;DHT22;1815;50.950;6.920;2024-02-21T08:13:02;12.00;99.90
3602;DHT22;1815;50.950;6.920;2024-02-21T08:15:27;12.00;99.90
3602;DHT22;1815;50.950;6.920;2024-02-21T08:17:56;12.00;99.90
3602;DHT22;1815;50.950;6.920;2024-02-21T08:20:25;12.10;99.90
3602;DHT22;1815;50.950;6.920;2024-02-21T08:22:51;12.10;99.90
3602;DHT22;1815;50.950;6.920;2024-02-21T08:25:17;12.10;99.90
3602;DHT22;1815;50.950;6.920;2024-02-21T08:27:42;12.20;99.90
3602;DHT22;1815;50.950;6.920;2024-02-21T08:30:08;12.10;99.90
3602;DHT22;1815;50.950;6.920;2024-02-21T08:32:34;12.20;99.90
3602;DHT22;1815;50.950;6.920;2024-02-21T08:35:02;12.20;99.90
3602;DHT22;1815;50.950;6.920;2024-02-21T08:37:28;12.20;99.90
3602;DHT22;1815;50.950;6.920;2024-02-21T08:39:54;12.20;99.90
3602;DHT22;1815;50.950;6.920;2024-02-21T08:42:20;12.20;99.90
3602;DHT22;1815;50.950;6.920;2024-02-21T08:44:45;12.30;99.90
3602;DHT22;1815;50.950;6.920;2024-02-21T08:47:11;12.40;99.90
3602;DHT22;1815;50.950;6.920;2024-02-21T08:49:37;12.50;99.90
3602;DHT22;1815;50.950;6.920;2024-02-21T08:52:04;12.60;99.90
3602;DHT22;1815;50.950;6.920;2024-02-21T08:54:31;12.60;99.90
3602;DHT22;1815;50.950;6.920;2024-02-21T08:56:58;12.70;99.90
3602;DHT22;1815;50.950;6.920;2024-02-21T08:59:23;12.80;99.90
3602;DHT22;1815;50.950;6.920;2024-02-21T09:01:51;12.80;99.90
3602;DHT22;1815;50.950;6.920;2024-02-21T09:04:17;12.80;99.90
3602;DHT22;1815;50.950;6.920;2024-02-21T09:06:43;12.90;99.90
3602;DHT22;1815;50.950;6.920;2024-02-21T09:09:10;12.90;99.90
3602;DHT22;1815;50.950;6.920;2024-02-21T09:11:36;13.10;99.90
3602;DHT22;1815;50.950;6.920;2024-02-21T09:14:02;13.20;99.90
3602;DHT22;1815;50.950;6.920;2024-02-21T09:16:31;13.40;99.90
3602;DHT22;1815;50.950;6.920;2024-02-21T09:18:57;13.60;99.90
3602;DHT22;1815;50.950;6.920;2024-02-21T09:21:23;13.90;99.90
3602;DHT22;1815;50.950;6.920;2024-02-21T09:23:48;14.10;99.90
3602;DHT22;1815;50.950;6.920;2024-02-21T09:26:14;14.30;99.90
3602;DHT22;1815;50.950;6.920;2024-02-21T09:28:42;14.40;99.90
3602;DHT22;1815;50.950;6.920;2024-02-21T09:31:08;14.40;99.90
3602;DHT22;1815;50.950;6.920;2024-02-21T09:33:34;14.50;99.90
3602;DHT22;1815;50.950;6.920;2024-02-21T09:36:01;14.50;99.90
3602;DHT22;1815;50.950;6.920;2024-02-21T09:38:27;14.70;99.90
3602;DHT22;1815;50.950;6.920;2024-02-21T09:41:03;14.70;99.90
3602;DHT22;1815;50.950;6.920;2024-02-21T09:43:29;14.80;99.90
3602;DHT22;1815;50.950;6.920;2024-02-21T09:45:57;15.00;99.90
3602;DHT22;1815;50.950;6.920;2024-02-21T09:51:15;15.20;99.90
3602;DHT22;1815;50.950;6.920;2024-02-21T09:53:42;15.30;99.90
3602;DHT22;1815;50.950;6.920;2024-02-21T09:56:09;15.40;99.90
3602;DHT22;1815;50.950;6.920;2024-02-21T09:58:34;15.50;99.90
3602;DHT22;1815;50.950;6.920;2024-02-21T10:01:01;15.70;99.90
3602;DHT22;1815;50.950;6.920;2024-02-21T10:03:26;15.70;99.90
3602;DHT22;1815;50.950;6.920;2024-02-21T10:05:52;15.80;99.90
3602;DHT22;1815;50.950;6.920;2024-02-21T10:08:19;15.90;99.90
3602;DHT22;1815;50.950;6.920;2024-02-21T10:10:45;15.80;99.90
3602;DHT22;1815;50.950;6.920;2024-02-21T10:13:26;15.90;99.90
3602;DHT22;1815;50.950;6.920;2024-02-21T10:16:05;15.90;99.90
3602;DHT22;1815;50.950;6.920;2024-02-21T10:18:32;15.80;99.90
3602;DHT22;1815;50.950;6.920;2024-02-21T10:21:05;15.80;99.90
3602;DHT22;1815;50.950;6.920;2024-02-21T10:23:45;15.70;99.90
3602;DHT22;1815;50.950;6.920;2024-02-21T10:26:12;15.60;99.90
3602;DHT22;1815;50.950;6.920;2024-02-21T10:28:38;15.60;99.90
3602;DHT22;1815;50.950;6.920;2024-02-21T10:31:08;15.60;99.90
3602;DHT22;1815;50.950;6.920;2024-02-21T10:33:35;15.60;99.90
3602;DHT22;1815;50.950;6.920;2024-02-21T10:36:08;15.70;99.90
3602;DHT22;1815;50.950;6.920;2024-02-21T10:38:37;15.70;99.90
3602;DHT22;1815;50.950;6.920;2024-02-21T10:41:06;15.80;99.90
3602;DHT22;1815;50.950;6.920;2024-02-21T10:43:39;15.70;99.90
3602;DHT22;1815;50.950;6.920;2024-02-21T10:46:08;15.90;99.90
3602;DHT22;1815;50.950;6.920;2024-02-21T10:48:42;16.00;99.90
3602;DHT22;1815;50.950;6.920;2024-02-21T10:51:17;16.00;99.90
3602;DHT22;1815;50.950;6.920;2024-02-21T10:56:31;15.90;99.90
3602;DHT22;1815;50.950;6.920;2024-02-21T10:59:02;16.00;99.90
3602;DHT22;1815;50.950;6.920;2024-02-21T11:01:28;15.90;99.90
3602;DHT22;1815;50.950;6.920;2024-02-21T11:03:59;15.90;99.90
3602;DHT22;1815;50.950;6.920;2024-02-21T11:06:27;15.90;99.90
3602;DHT22;1815;50.950;6.920;2024-02-21T11:09:04;15.90;99.90
3602;DHT22;1815;50.950;6.920;2024-02-21T11:11:34;15.90;99.90
3602;DHT22;1815;50.950;6.920;2024-02-21T11:14:09;16.00;99.90
3602;DHT22;1815;50.950;6.920;2024-02-21T11:16:40;16.00;99.90
3602;DHT22;1815;50.950;6.920;2024-02-21T11:19:18;15.90;99.90
3602;DHT22;1815;50.950;6.920;2024-02-21T11:21:45;15.80;99.90
3602;DHT22;1815;50.950;6.920;2024-02-21T11:24:10;15.70;99.90
3602;DHT22;1815;50.950;6.920;2024-02-21T11:26:40;15.70;99.90
3602;DHT22;1815;50.950;6.920;2024-02-21T11:29:07;15.70;99.90
3602;DHT22;1815;50.950;6.920;2024-02-21T11:31:43;15.70;99.90
3602;DHT22;1815;50.950;6.920;2024-02-21T11:34:10;15.60;99.90
3602;DHT22;1815;50.950;6.920;2024-02-21T11:36:36;15.60;99.90
3602;DHT22;1815;50.950;6.920;2024-02-21T11:39:05;15.50;99.90
3602;DHT22;1815;50.950;6.920;2024-02-21T11:41:31;15.40;99.90
3602;DHT22;1815;50.950;6.920;2024-02-21T11:43:57;15.30;99.90
3602;DHT22;1815;50.950;6.920;2024-02-21T11:46:23;15.30;99.90
3602;DHT22;1815;50.950;6.920;2024-02-21T11:48:49;15.20;99.90
3602;DHT22;1815;50.950;6.920;2024-02-21T11:51:24;15.10;99.90
3602;DHT22;1815;50.950;6.920;2024-02-21T11:53:51;14.90;99.90
3602;DHT22;1815;50.950;6.920;2024-02-21T11:56:18;14.90;99.90
3602;DHT22;1815;50.950;6.920;2024-02-21T11:58:46;14.80;99.90
3602;DHT22;1815;50.950;6.920;2024-02-21T12:01:12;14.80;99.90
3602;DHT22;1815;50.950;6.920;2024-02-21T12:03:38;14.80;99.90
3602;DHT22;1815;50.950;6.920;2024-02-21T12:06:04;14.70;99.90
3602;DHT22;1815;50.950;6.920;2024-02-21T12:08:44;14.80;99.90
3602;DHT22;1815;50.950;6.920;2024-02-21T12:11:22;14.70;99.90
3602;DHT22;1815;50.950;6.920;2024-02-21T12:14:04;14.70;99.90
3602;DHT22;1815;50.950;6.920;2024-02-21T12:16:34;14.60;99.90
3602;DHT22;1815;50.950;6.920;2024-02-21T12:19:00;14.70;99.90
3602;DHT22;1815;50.950;6.920;2024-02-21T12:21:29;14.60;99.90
3602;DHT22;1815;50.950;6.920;2024-02-21T12:23:55;14.60;99.90
3602;DHT22;1815;50.950;6.920;2024-02-21T12:26:22;14.60;99.90
3602;DHT22;1815;50.950;6.920;2024-02-21T12:28:48;14.50;99.90
3602;DHT22;1815;50.950;6.920;2024-02-21T12:31:13;14.50;99.90
3602;DHT22;1815;50.950;6.920;2024-02-21T12:33:39;14.50;99.90
3602;DHT22;1815;50.950;6.920;2024-02-21T12:36:05;14.40;99.90
3602;DHT22;1815;50.950;6.920;2024-02-21T12:38:31;14.40;99.90
3602;DHT22;1815;50.950;6.920;2024-02-21T12:40:57;14.40;99.90
3602;DHT22;1815;50.950;6.920;2024-02-21T12:43:23;14.40;99.90
3602;DHT22;1815;50.950;6.920;2024-02-21T12:45:49;14.30;99.90
3602;DHT22;1815;50.950;6.920;2024-02-21T12:48:14;14.40;99.90
3602;DHT22;1815;50.950;6.920;2024-02-21T12:50:48;14.40;99.90
3602;DHT22;1815;50.950;6.920;2024-02-21T12:53:16;14.30;99.90
3602;DHT22;1815;50.950;6.920;2024-02-21T12:55:41;14.30;99.90
3602;DHT22;1815;50.950;6.920;2024-02-21T12:58:07;14.30;99.90
3602;DHT22;1815;50.950;6.920;2024-02-21T13:00:34;14.30;99.90
3602;DHT22;1815;50.950;6.920;2024-02-21T13:03:01;14.30;99.90
3602;DHT22;1815;50.950;6.920;2024-02-21T13:05:26;14.50;99.90
3602;DHT22;1815;50.950;6.920;2024-02-21T13:07:53;14.60;99.90
3602;DHT22;1815;50.950;6.920;2024-02-21T13:10:19;14.60;99.90
3602;DHT22;1815;50.950;6.920;2024-02-21T13:12:45;14.60;99.90
3602;DHT22;1815;50.950;6.920;2024-02-21T13:15:11;14.50;99.90
3602;DHT22;1815;50.950;6.920;2024-02-21T13:17:37;14.60;99.90
3602;DHT22;1815;50.950;6.920;2024-02-21T13:20:03;14.60;99.90
3602;DHT22;1815;50.950;6.920;2024-02-21T13:22:29;14.70;99.90
3602;DHT22;1815;50.950;6.920;2024-02-21T13:24:55;14.80;99.90
3602;DHT22;1815;50.950;6.920;2024-02-21T13:27:21;14.90;99.90
3602;DHT22;1815;50.950;6.920;2024-02-21T13:29:46;14.90;99.90
3602;DHT22;1815;50.950;6.920;2024-02-21T13:32:12;14.90;99.90
3602;DHT22;1815;50.950;6.920;2024-02-21T13:34:38;14.80;99.90
3602;DHT22;1815;50.950;6.920;2024-02-21T13:37:04;14.80;99.90
3602;DHT22;1815;50.950;6.920;2024-02-21T13:39:30;14.90;99.90
3602;DHT22;1815;50.950;6.920;2024-02-21T13:41:55;15.00;99.90
3602;DHT22;1815;50.950;6.920;2024-02-21T13:44:21;15.10;99.90
3602;DHT22;1815;50.950;6.920;2024-02-21T13:46:47;15.00;99.90
3602;DHT22;1815;50.950;6.920;2024-02-21T13:49:12;15.10;99.90
3602;DHT22;1815;50.950;6.920;2024-02-21T13:51:38;15.10;99.90
3602;DHT22;1815;50.950;6.920;2024-02-21T13:54:06;15.10;99.90
3602;DHT22;1815;50.950;6.920;2024-02-21T13:56:35;15.00;99.90
3602;DHT22;1815;50.950;6.920;2024-02-21T13:59:00;15.00;99.90
3602;DHT22;1815;50.950;6.920;2024-02-21T14:01:27;14.90;99.90
3602;DHT22;1815;50.950;6.920;2024-02-21T14:03:57;14.80;99.90
3602;DHT22;1815;50.950;6.920;2024-02-21T14:06:23;14.70;99.90
3602;DHT22;1815;50.950;6.920;2024-02-21T14:08:48;14.70;99.90
3602;DHT22;1815;50.950;6.920;2024-02-21T14:11:14;14.60;99.90
3602;DHT22;1815;50.950;6.920;2024-02-21T14:13:40;14.60;99.90
3602;DHT22;1815;50.950;6.920;2024-02-21T14:16:09;14.60;99.90
3602;DHT22;1815;50.950;6.920;2024-02-21T14:18:37;14.60;99.90
3602;DHT22;1815;50.950;6.920;2024-02-21T14:21:04;14.60;99.90
3602;DHT22;1815;50.950;6.920;2024-02-21T14:23:29;14.60;99.90
3602;DHT22;1815;50.950;6.920;2024-02-21T14:25:55;14.50;99.90
3602;DHT22;1815;50.950;6.920;2024-02-21T14:28:21;14.50;99.90
3602;DHT22;1815;50.950;6.920;2024-02-21T14:30:46;14.50;99.90
3602;DHT22;1815;50.950;6.920;2024-02-21T14:33:13;14.50;99.90
3602;DHT22;1815;50.950;6.920;2024-02-21T14:35:39;14.40;99.90
3602;DHT22;1815;50.950;6.920;2024-02-21T14:38:05;14.30;99.90
3602;DHT22;1815;50.950;6.920;2024-02-21T14:40:31;14.30;99.90
3602;DHT22;1815;50.950;6.920;2024-02-21T14:42:56;14.30;99.90
3602;DHT22;1815;50.950;6.920;2024-02-21T14:45:22;14.30;99.90
3602;DHT22;1815;50.950;6.920;2024-02-21T14:47:48;14.30;99.90
3602;DHT22;1815;50.950;6.920;2024-02-21T14:50:14;14.30;99.90
3602;DHT22;1815;50.950;6.920;2024-02-21T14:52:41;14.30;99.90
3602;DHT22;1815;50.950;6.920;2024-02-21T14:55:06;14.30;99.90
3602;DHT22;1815;50.950;6.920;2024-02-21T14:57:32;14.40;99.90
3602;DHT22;1815;50.950;6.920;2024-02-21T14:59:58;14.30;99.90
3602;DHT22;1815;50.950;6.920;2024-02-21T15:02:24;14.30;99.90
3602;DHT22;1815;50.950;6.920;2024-02-21T15:04:50;14.30;99.90
3602;DHT22;1815;50.950;6.920;2024-02-21T15:07:17;14.30;99.90
3602;DHT22;1815;50.950;6.920;2024-02-21T15:09:43;14.40;99.90
3602;DHT22;1815;50.950;6.920;2024-02-21T15:12:09;14.40;99.90
3602;DHT22;1815;50.950;6.920;2024-02-21T15:14:34;14.50;99.90
3602;DHT22;1815;50.950;6.920;2024-02-21T15:17:01;14.50;99.90
3602;DHT22;1815;50.950;6.920;2024-02-21T15:19:26;14.60;99.90
3602;DHT22;1815;50.950;6.920;2024-02-21T15:21:52;14.60;99.90
3602;DHT22;1815;50.950;6.920;2024-02-21T15:24:19;14.70;99.90
3602;DHT22;1815;50.950;6.920;2024-02-21T15:26:45;14.80;99.90
3602;DHT22;1815;50.950;6.920;2024-02-21T15:29:11;14.80;99.90
3602;DHT22;1815;50.950;6.920;2024-02-21T15:31:37;14.80;99.90
3602;DHT22;1815;50.950;6.920;2024-02-21T15:34:03;14.80;99.90
3602;DHT22;1815;50.950;6.920;2024-02-21T15:36:29;14.80;99.90
3602;DHT22;1815;50.950;6.920;2024-02-21T15:38:54;14.80;99.90
3602;DHT22;1815;50.950;6.920;2024-02-21T15:41:20;14.80;99.90
3602;DHT22;1815;50.950;6.920;2024-02-21T15:43:47;14.80;99.90
3602;DHT22;1815;50.950;6.920;2024-02-21T15:46:13;14.80;99.90
3602;DHT22;1815;50.950;6.920;2024-02-21T15:48:39;14.80;99.90
3602;DHT22;1815;50.950;6.920;2024-02-21T15:51:06;14.80;99.90
3602;DHT22;1815;50.950;6.920;2024-02-21T15:53:31;14.80;99.90
3602;DHT22;1815;50.950;6.920;2024-02-21T15:55:57;14.80;99.90
3602;DHT22;1815;50.950;6.920;2024-02-21T15:58:23;14.70;99.90
3602;DHT22;1815;50.950;6.920;2024-02-21T16:00:50;14.70;99.90
3602;DHT22;1815;50.950;6.920;2024-02-21T16:03:16;14.70;99.90
3602;DHT22;1815;50.950;6.920;2024-02-21T16:05:41;14.60;99.90
3602;DHT22;1815;50.950;6.920;2024-02-21T16:08:07;14.60;99.90